createdAt,value
2022-11-19T00:01:52.381Z,100767.69
2022-11-19T00:04:23.853Z,100775.59
2022-11-19T00:06:55.714Z,100773.94
2022-11-19T00:09:27.294Z,100774.69
2022-11-19T00:12:17.834Z,100772.91
2022-11-19T00:14:49.305Z,100772.16
2022-11-19T00:17:21.074Z,100778.31
2022-11-19T00:19:52.541Z,100774.19
2022-11-19T00:22:24.397Z,100778.94
2022-11-19T00:24:55.891Z,100787.81
2022-11-19T00:27:27.708Z,100783.69
2022-11-19T00:29:59.218Z,100787.09
2022-11-19T00:32:32.272Z,100780.38
2022-11-19T00:35:03.768Z,100786.66
2022-11-19T00:37:35.590Z,100782.50
2022-11-19T00:40:12.012Z,100793.75
2022-11-19T00:43:03.911Z,100798.94
2022-11-19T00:45:35.420Z,100792.34
2022-11-19T00:48:07.218Z,100803.56
2022-11-19T00:50:38.709Z,100796.81
2022-11-19T00:53:10.496Z,100802.84
2022-11-19T00:55:41.965Z,100807.34
2022-11-19T00:58:14.168Z,100803.09
2022-11-19T01:00:45.698Z,100802.41
2022-11-19T01:03:17.623Z,100805.81
2022-11-19T01:05:49.106Z,100806.66
2022-11-19T01:08:20.923Z,100805.81
2022-11-19T01:10:52.477Z,100812.78
2022-11-19T01:13:36.643Z,100810.31
2022-11-19T01:16:08.125Z,100811.25
2022-11-19T01:18:39.942Z,100818.34
2022-11-19T01:21:11.475Z,100814.06
2022-11-19T01:23:43.294Z,100815.00
2022-11-19T01:26:14.801Z,100814.19
2022-11-19T01:28:46.588Z,100812.66
2022-11-19T01:31:18.077Z,100811.00
2022-11-19T01:33:49.869Z,100818.91
2022-11-19T01:36:21.334Z,100812.19
2022-11-19T01:38:54.123Z,100813.84
2022-11-19T01:41:25.599Z,100807.09
2022-11-19T01:43:59.412Z,100809.81
2022-11-19T01:46:30.933Z,100816.78
2022-11-19T01:49:02.777Z,100815.97
2022-11-19T01:51:34.242Z,100810.78
2022-11-19T01:54:06.653Z,100815.13
2022-11-19T01:56:38.126Z,100819.50
2022-11-19T01:59:09.974Z,100826.50
2022-11-19T02:01:41.527Z,100820.69
2022-11-19T02:04:13.412Z,100822.59
2022-11-19T02:06:44.919Z,100835.59
2022-11-19T02:09:16.955Z,100833.81
2022-11-19T02:11:48.629Z,100839.00
2022-11-19T02:14:20.513Z,100835.47
2022-11-19T02:16:51.995Z,100841.50
2022-11-19T02:19:23.807Z,100838.91
2022-11-19T02:21:55.317Z,100837.25
2022-11-19T02:24:27.099Z,100832.88
2022-11-19T02:26:58.639Z,100836.41
2022-11-19T02:29:30.587Z,100845.03
2022-11-19T02:32:02.070Z,100837.94
2022-11-19T02:34:33.869Z,100844.81
2022-11-19T02:37:05.341Z,100843.97
2022-11-19T02:39:37.112Z,100832.28
2022-11-19T02:42:08.608Z,100839.59
2022-11-19T02:44:59.365Z,100839.84
2022-11-19T02:47:31.376Z,100835.94
2022-11-19T02:50:02.894Z,100832.72
2022-11-19T02:52:34.686Z,100830.34
2022-11-19T02:55:06.172Z,100828.81
2022-11-19T02:57:38.120Z,100823.84
2022-11-19T03:00:28.522Z,100818.75
2022-11-19T03:03:32.372Z,100824.66
2022-11-19T03:06:03.844Z,100828.91
2022-11-19T03:08:35.608Z,100832.22
2022-11-19T03:11:07.080Z,100820.06
2022-11-19T03:13:57.790Z,100821.84
2022-11-19T03:16:41.400Z,100829.41
2022-11-19T03:19:13.390Z,100830.09
2022-11-19T03:21:44.868Z,100836.13
2022-11-19T03:24:16.675Z,100835.19
2022-11-19T03:26:48.135Z,100836.88
2022-11-19T03:29:20.342Z,100838.63
2022-11-19T03:31:52.085Z,100841.34
2022-11-19T03:34:23.865Z,100849.13
2022-11-19T03:36:55.310Z,100844.16
2022-11-19T03:39:27.243Z,100835.78
2022-11-19T03:41:58.786Z,100846.16
2022-11-19T03:44:30.714Z,100846.50
2022-11-19T03:47:02.202Z,100850.06
2022-11-19T03:49:34.063Z,100852.66
2022-11-19T03:52:05.593Z,100857.84
2022-11-19T03:54:37.469Z,100857.72
2022-11-19T03:57:08.918Z,100859.38
2022-11-19T03:59:40.727Z,100861.03
2022-11-19T04:02:12.216Z,100864.34
2022-11-19T04:04:43.993Z,100862.47
2022-11-19T04:07:15.581Z,100863.41
2022-11-19T04:09:47.482Z,100863.53
2022-11-19T04:12:19.045Z,100864.34
2022-11-19T04:14:50.809Z,100868.63
2022-11-19T04:17:22.269Z,100867.66
2022-11-19T04:19:54.054Z,100866.84
2022-11-19T04:22:25.525Z,100868.50
2022-11-19T04:24:57.415Z,100863.41
2022-11-19T04:27:28.867Z,100863.41
2022-11-19T04:30:00.551Z,100860.81
2022-11-19T04:32:32.478Z,100866.25
2022-11-19T04:35:03.964Z,100860.81
2022-11-19T04:37:36.009Z,100865.31
2022-11-19T04:40:07.868Z,100861.88
2022-11-19T04:42:39.334Z,100866.97
2022-11-19T04:45:11.406Z,100866.00
2022-11-19T04:47:42.860Z,100866.00
2022-11-19T04:50:14.731Z,100859.16
2022-11-19T04:52:46.190Z,100857.28
2022-11-19T04:55:18.066Z,100849.72
2022-11-19T04:57:51.789Z,100851.47
2022-11-19T05:00:23.899Z,100851.59
2022-11-19T05:02:55.467Z,100847.34
2022-11-19T05:05:27.470Z,100846.41
2022-11-19T05:07:58.980Z,100836.94
2022-11-19T05:10:30.843Z,100839.53
2022-11-19T05:13:02.362Z,100842.16
2022-11-19T05:15:34.251Z,100835.06
2022-11-19T05:18:05.747Z,100832.22
2022-11-19T05:20:37.628Z,100831.28
2022-11-19T05:23:09.130Z,100833.06
2022-11-19T05:25:41.041Z,100834.00
2022-11-19T05:28:12.520Z,100828.44
2022-11-19T05:30:44.144Z,100834.38
2022-11-19T05:33:15.643Z,100829.91
2022-11-19T05:35:47.587Z,100835.00
2022-11-19T05:38:19.184Z,100839.13
2022-11-19T05:40:51.111Z,100833.69
2022-11-19T05:43:22.595Z,100838.19
2022-11-19T05:45:54.493Z,100836.28
2022-11-19T05:48:25.954Z,100839.72
2022-11-19T05:50:57.509Z,100831.81
2022-11-19T05:53:28.966Z,100838.66
2022-11-19T05:56:01.230Z,100839.47
2022-11-19T05:58:32.763Z,100848.09
2022-11-19T06:01:04.620Z,100846.09
2022-11-19T06:03:36.117Z,100849.75
2022-11-19T06:06:08.194Z,100856.16
2022-11-19T06:08:39.708Z,100856.97
2022-11-19T06:11:31.615Z,100850.00
2022-11-19T06:14:03.143Z,100854.38
2022-11-19T06:16:35.277Z,100851.88
2022-11-19T06:19:06.831Z,100851.28
2022-11-19T06:21:38.961Z,100857.44
2022-11-19T06:24:10.448Z,100859.09
2022-11-19T06:26:42.111Z,100853.91
2022-11-19T06:29:13.772Z,100852.00
2022-11-19T06:31:45.801Z,100854.50
2022-11-19T06:34:17.282Z,100849.19
2022-11-19T06:36:50.749Z,100842.91
2022-11-19T06:39:22.751Z,100852.13
2022-11-19T06:42:14.936Z,100847.75
2022-11-19T06:44:46.408Z,100850.25
2022-11-19T06:47:18.298Z,100846.69
2022-11-19T06:49:49.788Z,100843.38
2022-11-19T06:52:21.323Z,100847.75
2022-11-19T06:54:52.914Z,100840.78
2022-11-19T06:57:25.304Z,100847.66
2022-11-19T06:59:56.941Z,100845.63
2022-11-19T07:02:28.926Z,100850.00
2022-11-19T07:05:00.383Z,100840.31
2022-11-19T07:07:32.453Z,100848.47
2022-11-19T07:10:03.956Z,100842.69
2022-11-19T07:12:36.063Z,100845.53
2022-11-19T07:15:07.715Z,100845.66
2022-11-19T07:17:40.226Z,100847.44
2022-11-19T07:20:11.712Z,100857.94
2022-11-19T07:22:43.675Z,100862.09
2022-11-19T07:25:15.174Z,100860.66
2022-11-19T07:27:47.883Z,100860.44
2022-11-19T07:30:19.350Z,100859.50
2022-11-19T07:32:51.395Z,100847.41
2022-11-19T07:35:22.971Z,100844.09
2022-11-19T07:37:55.081Z,100845.75
2022-11-19T07:40:26.970Z,100849.78
2022-11-19T07:42:58.453Z,100850.84
2022-11-19T07:45:30.237Z,100853.66
2022-11-19T07:48:01.713Z,100852.88
2022-11-19T07:50:33.548Z,100860.50
2022-11-19T07:53:05.048Z,100854.59
2022-11-19T07:55:36.708Z,100855.72
2022-11-19T07:58:08.585Z,100857.09
2022-11-19T08:00:40.092Z,100857.34
2022-11-19T08:03:11.838Z,100858.41
2022-11-19T08:05:43.309Z,100849.72
2022-11-19T08:08:15.304Z,100834.47
2022-11-19T08:10:46.779Z,100830.59
2022-11-19T08:13:18.277Z,100821.44
2022-11-19T08:15:49.738Z,100812.81
2022-11-19T08:18:21.528Z,100809.78
2022-11-19T08:20:53.012Z,100809.50
2022-11-19T08:23:24.508Z,100805.38
2022-11-19T08:25:56.030Z,100810.59
2022-11-19T08:28:27.853Z,100808.81
2022-11-19T08:30:59.360Z,100817.75
2022-11-19T08:33:31.504Z,100811.44
2022-11-19T08:36:02.991Z,100806.63
2022-11-19T08:38:38.636Z,100802.53
2022-11-19T08:41:36.730Z,100808.28
2022-11-19T08:44:08.563Z,100804.41
2022-11-19T08:46:40.176Z,100804.31
2022-11-19T08:49:14.790Z,100799.63
2022-11-19T08:51:46.290Z,100803.75
2022-11-19T08:54:18.477Z,100807.31
2022-11-19T08:56:50.178Z,100817.44
2022-11-19T08:59:21.961Z,100808.72
2022-11-19T09:01:53.727Z,100801.28
2022-11-19T09:04:25.665Z,100797.41
2022-11-19T09:06:57.298Z,100798.38
2022-11-19T09:09:29.170Z,100802.94
2022-11-19T09:12:00.717Z,100795.13
2022-11-19T09:14:32.536Z,100789.78
2022-11-19T09:17:04.006Z,100791.09
2022-11-19T09:19:35.807Z,100793.16
2022-11-19T09:22:07.275Z,100794.84
2022-11-19T09:24:39.314Z,100795.47
2022-11-19T09:27:11.037Z,100794.31
2022-11-19T09:29:43.037Z,100799.13
2022-11-19T09:32:14.542Z,100799.13
2022-11-19T09:34:46.379Z,100800.63
2022-11-19T09:37:17.948Z,100808.81
2022-11-19T09:39:49.758Z,100807.44
2022-11-19T09:42:21.251Z,100804.97
2022-11-19T09:44:53.045Z,100810.09
2022-11-19T09:47:24.544Z,100808.03
2022-11-19T09:49:56.359Z,100811.22
2022-11-19T09:52:27.848Z,100806.50
2022-11-19T09:54:59.793Z,100806.16
2022-11-19T09:57:31.308Z,100808.44
2022-11-19T10:00:03.207Z,100803.94
2022-11-19T10:02:34.750Z,100802.63
2022-11-19T10:05:06.645Z,100800.41
2022-11-19T10:07:38.273Z,100791.72
2022-11-19T10:10:12.507Z,100786.31
2022-11-19T10:12:44.330Z,100782.31
2022-11-19T10:15:16.325Z,100770.34
2022-11-19T10:17:47.902Z,100768.06
2022-11-19T10:20:19.804Z,100767.41
2022-11-19T10:22:57.156Z,100767.31
2022-11-19T10:25:29.617Z,100760.78
2022-11-19T10:28:01.850Z,100763.19
2022-11-19T10:30:33.374Z,100759.94
2022-11-19T10:33:04.923Z,100603.69
2022-11-19T10:35:36.739Z,100749.91
2022-11-19T10:38:08.199Z,100747.09
2022-11-19T10:40:40.043Z,100744.72
2022-11-19T10:43:11.532Z,100742.69
2022-11-19T10:45:43.387Z,100742.91
2022-11-19T10:48:14.865Z,100750.81
2022-11-19T10:50:46.701Z,100739.31
2022-11-19T10:53:18.224Z,100738.00
2022-11-19T10:55:54.192Z,100729.81
2022-11-19T10:58:26.293Z,100736.09
2022-11-19T11:00:58.118Z,100727.53
2022-11-19T11:03:29.646Z,100725.38
2022-11-19T11:06:03.200Z,100721.09
2022-11-19T11:08:34.674Z,100722.09
2022-11-19T11:11:06.543Z,100716.63
2022-11-19T11:13:56.887Z,100708.59
2022-11-19T11:16:29.873Z,100722.38
2022-11-19T11:19:03.191Z,100706.56
2022-11-19T11:21:35.171Z,100699.72
2022-11-19T11:24:06.676Z,100688.00
2022-11-19T11:26:38.675Z,100686.25
2022-11-19T11:29:10.138Z,100692.28
2022-11-19T11:31:42.103Z,100672.91
2022-11-19T11:34:14.609Z,100668.34
2022-11-19T11:36:46.400Z,100681.25
2022-11-19T11:39:18.265Z,100673.56
2022-11-19T11:42:07.023Z,100671.97
2022-11-19T11:44:38.934Z,100673.94
2022-11-19T11:47:10.462Z,100666.97
2022-11-19T11:49:42.300Z,100672.25
2022-11-19T11:52:14.252Z,100657.53
2022-11-19T11:54:46.074Z,100669.94
2022-11-19T11:57:17.592Z,100664.63
2022-11-19T11:59:49.403Z,100661.53
2022-11-19T12:02:21.253Z,100664.69
2022-11-19T12:04:52.832Z,100657.88
2022-11-19T12:07:24.382Z,100657.25
2022-11-19T12:09:56.232Z,100657.53
2022-11-19T12:12:27.709Z,100658.25
2022-11-19T12:14:59.320Z,100656.38
2022-11-19T12:17:30.885Z,100668.03
2022-11-19T12:20:02.891Z,100657.72
2022-11-19T12:22:34.370Z,100667.66
2022-11-19T12:25:05.879Z,100666.06
2022-11-19T12:27:37.356Z,100669.03
2022-11-19T12:30:09.712Z,100667.38
2022-11-19T12:32:41.208Z,100670.78
2022-11-19T12:35:13.010Z,100664.00
2022-11-19T12:37:44.488Z,100678.50
2022-11-19T12:40:15.976Z,100658.56
2022-11-19T12:42:47.453Z,100659.47
2022-11-19T12:45:18.927Z,100654.63
2022-11-19T12:47:50.402Z,100657.44
2022-11-19T12:50:22.389Z,100655.63
2022-11-19T12:52:53.977Z,100432.69
2022-11-19T12:55:25.928Z,100643.72
2022-11-19T12:57:57.476Z,100642.06
2022-11-19T13:00:29.339Z,100647.25
2022-11-19T13:03:01.105Z,100645.16
2022-11-19T13:05:32.903Z,100639.94
2022-11-19T13:08:04.399Z,100635.66
2022-11-19T13:10:35.954Z,100640.41
2022-11-19T13:13:07.427Z,100637.34
2022-11-19T13:15:39.371Z,100633.38
2022-11-19T13:18:10.959Z,100645.13
2022-11-19T13:20:42.766Z,100639.03
2022-11-19T13:23:14.239Z,100647.59
2022-11-19T13:25:46.232Z,100637.38
2022-11-19T13:28:17.701Z,100645.28
2022-11-19T13:30:49.484Z,100645.16
2022-11-19T13:33:20.974Z,100643.38
2022-11-19T13:35:52.505Z,100642.38
2022-11-19T13:38:24.025Z,100637.94
2022-11-19T13:40:55.530Z,100634.50
2022-11-19T13:43:45.815Z,100636.00
2022-11-19T13:46:17.309Z,100633.84
2022-11-19T13:48:48.800Z,100634.03
2022-11-19T13:51:20.558Z,100629.25
2022-11-19T13:53:52.044Z,100630.09
2022-11-19T13:56:23.858Z,100625.97
2022-11-19T13:58:55.427Z,100623.47
2022-11-19T14:01:27.540Z,100623.34
2022-11-19T14:03:59.066Z,100625.94
2022-11-19T14:06:30.690Z,100633.81
2022-11-19T14:09:02.183Z,100623.78
2022-11-19T14:11:33.978Z,100625.94
2022-11-19T14:14:05.442Z,100643.34
2022-11-19T14:17:03.191Z,100626.75
2022-11-19T14:19:53.244Z,100631.84
2022-11-19T14:22:43.500Z,100637.03
2022-11-19T14:25:33.983Z,100638.03
2022-11-19T14:28:05.438Z,100634.75
2022-11-19T14:30:36.949Z,100634.72
2022-11-19T14:33:08.427Z,100634.22
2022-11-19T14:35:40.302Z,100632.75
2022-11-19T14:38:11.867Z,100633.06
2022-11-19T14:40:44.213Z,100620.44
2022-11-19T14:43:54.214Z,100623.22
2022-11-19T14:46:26.134Z,100624.81
2022-11-19T14:48:57.697Z,100629.94
2022-11-19T14:51:29.666Z,100620.59
2022-11-19T14:54:01.114Z,100489.19
2022-11-19T14:56:33.006Z,100617.59
2022-11-19T14:59:04.472Z,100622.19
2022-11-19T15:01:36.382Z,100619.88
2022-11-19T15:04:07.858Z,100618.59
2022-11-19T15:06:40.105Z,100622.97
2022-11-19T15:09:11.568Z,100616.88
2022-11-19T15:11:43.388Z,100624.41
2022-11-19T15:14:14.855Z,100615.72
2022-11-19T15:16:46.404Z,100616.88
2022-11-19T15:19:18.068Z,100615.03
2022-11-19T15:21:50.125Z,100614.84
2022-11-19T15:24:21.643Z,100612.69
2022-11-19T15:26:53.402Z,100612.69
2022-11-19T15:29:24.898Z,100609.59
2022-11-19T15:31:56.777Z,100612.56
2022-11-19T15:34:38.628Z,100607.28
2022-11-19T15:37:20.404Z,100609.13
2022-11-19T15:39:51.874Z,100606.00
2022-11-19T15:42:23.737Z,100613.50
2022-11-19T15:44:55.238Z,100608.09
2022-11-19T15:47:27.206Z,100613.50
2022-11-19T15:49:58.698Z,100611.38
2022-11-19T15:52:33.581Z,100606.25
2022-11-19T15:55:05.079Z,100607.53
2022-11-19T15:57:36.560Z,100603.63
2022-11-19T16:00:08.095Z,100603.28
2022-11-19T16:02:39.982Z,100611.44
2022-11-19T16:05:11.454Z,100605.03
2022-11-19T16:07:43.273Z,100599.31
2022-11-19T16:10:14.776Z,100602.53
2022-11-19T16:13:05.117Z,100606.13
2022-11-19T16:16:08.798Z,100596.25
2022-11-19T16:18:40.367Z,100598.88
2022-11-19T16:21:11.861Z,100596.09
2022-11-19T16:24:03.757Z,100586.28
2022-11-19T16:26:35.231Z,100591.53
2022-11-19T16:29:06.773Z,100589.06
2022-11-19T16:31:38.250Z,100587.41
2022-11-19T16:34:09.733Z,100585.78
2022-11-19T16:36:41.238Z,100586.28
2022-11-19T16:39:12.754Z,100585.94
2022-11-19T16:42:03.239Z,100592.22
2022-11-19T16:44:34.711Z,100581.81
2022-11-19T16:47:06.504Z,100586.53
2022-11-19T16:49:37.973Z,100583.22
2022-11-19T16:52:09.823Z,100579.34
2022-11-19T16:54:41.291Z,100594.38
2022-11-19T16:57:13.138Z,100585.03
2022-11-19T16:59:44.596Z,100592.22
2022-11-19T17:02:16.394Z,100600.75
2022-11-19T17:04:48.895Z,100595.53
2022-11-19T17:07:20.719Z,100594.84
2022-11-19T17:09:52.226Z,100592.22
2022-11-19T17:12:24.186Z,100591.09
2022-11-19T17:14:55.749Z,100591.34
2022-11-19T17:17:27.612Z,100592.97
2022-11-19T17:19:59.108Z,100592.97
2022-11-19T17:22:31.347Z,100585.94
2022-11-19T17:25:03.702Z,100589.41
2022-11-19T17:27:35.474Z,100595.13
2022-11-19T17:30:06.992Z,100592.81
2022-11-19T17:32:38.990Z,100596.19
2022-11-19T17:35:10.486Z,100604.19
2022-11-19T17:37:42.285Z,100607.22
2022-11-19T17:40:13.745Z,100603.81
2022-11-19T17:43:04.175Z,100603.03
2022-11-19T17:45:35.661Z,100606.75
2022-11-19T17:48:07.158Z,100602.84
2022-11-19T17:50:38.647Z,100602.25
2022-11-19T17:53:10.781Z,100607.06
2022-11-19T17:55:42.242Z,100604.44
2022-11-19T17:58:14.727Z,100604.47
2022-11-19T18:00:46.286Z,100606.91
2022-11-19T18:03:18.164Z,100612.66
2022-11-19T18:05:49.681Z,100608.75
2022-11-19T18:08:21.503Z,100465.69
2022-11-19T18:10:52.985Z,100598.56
2022-11-19T18:13:24.777Z,100603.31
2022-11-19T18:15:57.661Z,100606.53
2022-11-19T18:18:29.453Z,100601.19
2022-11-19T18:21:02.389Z,100603.50
2022-11-19T18:23:34.315Z,100596.25
2022-11-19T18:26:05.790Z,100599.50
2022-11-19T18:28:44.910Z,100600.44
2022-11-19T18:31:19.190Z,100601.81
2022-11-19T18:33:51.110Z,100596.78
2022-11-19T18:36:22.639Z,100597.94
2022-11-19T18:38:55.873Z,100605.81
2022-11-19T18:41:27.549Z,100606.94
2022-11-19T18:44:18.367Z,100605.47
2022-11-19T18:46:49.863Z,100602.53
2022-11-19T18:49:22.017Z,100597.13
2022-11-19T18:51:53.681Z,100605.50
2022-11-19T18:54:25.447Z,100609.75
2022-11-19T18:56:56.926Z,100600.91
2022-11-19T18:59:29.842Z,100607.34
2022-11-19T19:02:02.028Z,100601.44
2022-11-19T19:04:33.819Z,100599.59
2022-11-19T19:07:05.498Z,100602.25
2022-11-19T19:09:37.368Z,100604.22
2022-11-19T19:12:18.175Z,100600.91
2022-11-19T19:14:51.536Z,100608.66
2022-11-19T19:17:23.510Z,100608.50
2022-11-19T19:19:55.317Z,100598.19
2022-11-19T19:22:26.871Z,100604.25
2022-11-19T19:24:58.735Z,100604.75
2022-11-19T19:27:30.279Z,100611.13
2022-11-19T19:30:02.218Z,100605.53
2022-11-19T19:32:33.687Z,100609.34
2022-11-19T19:35:05.710Z,100605.06
2022-11-19T19:37:37.199Z,100609.66
2022-11-19T19:40:09.232Z,100613.72
2022-11-19T19:42:41.480Z,100609.50
2022-11-19T19:45:13.611Z,100613.75
2022-11-19T19:47:45.461Z,100613.91
2022-11-19T19:50:16.944Z,100619.31
2022-11-19T19:52:49.099Z,100615.72
2022-11-19T19:55:21.291Z,100615.88
2022-11-19T19:57:54.061Z,100616.69
2022-11-19T20:00:25.544Z,100616.69
2022-11-19T20:02:57.066Z,100620.09
2022-11-19T20:05:28.561Z,100624.00
2022-11-19T20:08:00.855Z,100619.78
2022-11-19T20:10:32.457Z,100625.69
2022-11-19T20:13:23.287Z,100631.72
2022-11-19T20:15:55.059Z,100632.22
2022-11-19T20:18:26.678Z,100630.19
2022-11-19T20:20:59.223Z,100632.34
2022-11-19T20:23:30.696Z,100639.75
2022-11-19T20:26:02.285Z,100640.31
2022-11-19T20:28:33.898Z,100640.47
2022-11-19T20:31:05.455Z,100639.75
2022-11-19T20:33:36.992Z,100634.31
2022-11-19T20:36:08.526Z,100638.06
2022-11-19T20:38:41.478Z,100648.91
2022-11-19T20:41:31.965Z,100649.22
2022-11-19T20:44:22.541Z,100660.16
2022-11-19T20:46:54.455Z,100653.28
2022-11-19T20:49:26.300Z,100650.50
2022-11-19T20:51:57.840Z,100655.06
2022-11-19T20:54:29.703Z,100651.13
2022-11-19T20:57:01.275Z,100651.13
2022-11-19T20:59:32.804Z,100651.94
2022-11-19T21:02:04.447Z,100652.16
2022-11-19T21:04:37.274Z,100653.13
2022-11-19T21:07:08.809Z,100652.75
2022-11-19T21:09:40.981Z,100645.25
2022-11-19T21:12:12.584Z,100644.38
2022-11-19T21:14:44.161Z,100644.22
2022-11-19T21:17:15.664Z,100640.13
2022-11-19T21:19:48.966Z,100644.31
2022-11-19T21:22:20.478Z,100672.53
2022-11-19T21:24:52.327Z,100644.69
2022-11-19T21:27:24.203Z,100640.50
2022-11-19T21:29:55.995Z,100642.16
2022-11-19T21:32:27.694Z,100645.16
2022-11-19T21:34:59.637Z,100644.16
2022-11-19T21:37:31.208Z,100639.13
2022-11-19T21:40:03.058Z,100636.25
2022-11-19T21:42:34.573Z,100399.44
2022-11-19T21:45:06.102Z,100634.97
2022-11-19T21:47:40.657Z,100635.56
2022-11-19T21:50:12.404Z,100636.53
2022-11-19T21:52:43.979Z,100632.34
2022-11-19T21:55:15.593Z,100630.34
2022-11-19T21:57:47.119Z,100630.63
2022-11-19T22:00:19.033Z,100636.25
2022-11-19T22:02:50.624Z,100637.91
2022-11-19T22:05:25.016Z,100630.03
2022-11-19T22:07:56.540Z,100630.03
2022-11-19T22:10:28.359Z,100622.09
2022-11-19T22:12:59.915Z,100623.50
2022-11-19T22:15:31.424Z,100629.56
2022-11-19T22:18:02.892Z,100619.19
2022-11-19T22:20:34.779Z,100614.47
2022-11-19T22:23:06.272Z,100614.78
2022-11-19T22:25:37.811Z,100610.66
2022-11-19T22:28:09.294Z,100615.28
2022-11-19T22:30:41.241Z,100608.56
2022-11-19T22:33:12.731Z,100616.72
2022-11-19T22:35:44.483Z,100603.47
2022-11-19T22:38:15.951Z,100602.56
2022-11-19T22:40:47.792Z,100607.59
2022-11-19T22:43:22.919Z,100607.13
2022-11-19T22:45:54.942Z,100608.00
2022-11-19T22:48:26.445Z,100599.88
2022-11-19T22:50:58.396Z,100600.03
2022-11-19T22:53:29.885Z,100591.59
2022-11-19T22:56:01.799Z,100588.88
2022-11-19T22:58:33.286Z,100595.63
2022-11-19T23:01:05.167Z,100592.09
2022-11-19T23:03:36.628Z,100593.00
2022-11-19T23:06:08.117Z,100584.69
2022-11-19T23:08:39.592Z,100588.44
2022-11-19T23:11:11.418Z,100592.69
2022-11-19T23:13:42.889Z,100591.56
2022-11-19T23:16:14.725Z,100592.31
2022-11-19T23:18:46.236Z,100591.75
2022-11-19T23:21:18.187Z,100596.44
2022-11-19T23:23:50.125Z,100594.94
2022-11-19T23:26:21.590Z,100591.34
2022-11-19T23:28:53.284Z,100597.41
2022-11-19T23:31:24.773Z,100599.91
2022-11-19T23:33:59.212Z,100601.38
2022-11-19T23:36:31.059Z,100585.69
2022-11-19T23:39:03.135Z,100590.84
2022-11-19T23:41:34.594Z,100586.88
2022-11-19T23:44:06.556Z,100598.22
2022-11-19T23:46:38.032Z,100587.47
2022-11-19T23:49:10.403Z,100590.16
2022-11-19T23:51:41.930Z,100595.91
2022-11-19T23:54:14.498Z,100588.59
2022-11-19T23:56:45.983Z,100588.88
2022-11-19T23:59:21.691Z,100584.56
